Weather at Henderson Executive Airport

Public forecast

Using degrees Fahrenheit for public forecast. Weather courtesy of forecast.io.

Current aviation weather report (METAR) for Henderson Executive Airport

Retrieved 2021/07/23 23:56 UTC (21 minutes ago):

KHND 232356Z 24017G22KT 10SM CLR 39/13 A2995 RMK AO2 SLP122 T03940128 10394 20350 56021

Aviation forecast (TAF) for Henderson Executive Airport

Retrieved 2021-07-24 00:27 UTC (0 seconds ago):

TAF KHND 232324Z 2400/2424 21012G22KT P6SM FEW120 SCT250 FM240500 22008KT P6SM SCT120 BKN250 FM240800 08012KT P6SM SCT120 BKN250 FM241100 VRB06KT P6SM SCT120 BKN250 FM241500 03006KT P6SM SCT120 BKN250 FM241700 08007KT P6SM SCT120 BKN250